Salesville, Texas
Current Conditions -  °F | °C
As of 9:53 PM on Friday 24 Oct 2014 (Local Time) from KMWL Reporting Station
Clear Clear  
Wind Chill: 73°   Ceiling: Unl
Heat Index: 73°   Visibility: 10mi
Dew Point: 59°   Wind: 10mph
Humidity: 61%   Direction: 150°SSE
Pressure: 30.08"   Gusts: NA
Location:  32.7965°N, 98.1108°W
Report Text: KMWL 250253Z AUTO 15009KT 10SM CLR 23/15 A3008 RMK AO2 SLP175 T02280150 51011
Loading
Personal Weather Stations






























Interactive Weather Map
Tropical Storm Tracking
New forecast layout! Learn more

10-Day Weather Forecast

Advertisements
Track Severe Weather on mobile